createdAt,value
2022-12-18T00:05:10.309Z,37.50
2022-12-18T00:15:11.756Z,35.07
2022-12-18T00:25:13.191Z,36.97
2022-12-18T00:35:14.674Z,34.53
2022-12-18T00:45:16.296Z,33.33
2022-12-18T00:55:18.725Z,37.87
2022-12-18T01:05:22.079Z,37.73
2022-12-18T01:15:23.511Z,32.53
2022-12-18T01:25:25.057Z,33.47
2022-12-18T01:35:26.523Z,30.70
2022-12-18T01:45:31.446Z,30.73
2022-12-18T01:55:39.307Z,31.10
2022-12-18T02:05:52.027Z,31.60
2022-12-18T02:16:19.241Z,30.20
2022-12-18T02:26:52.315Z,29.67
2022-12-18T02:37:00.413Z,29.80
2022-12-18T02:47:03.472Z,30.57
2022-12-18T02:57:18.718Z,29.13
2022-12-18T03:07:28.791Z,28.37
2022-12-18T03:17:34.330Z,27.57
2022-12-18T03:27:40.067Z,24.07
2022-12-18T03:37:45.157Z,25.57
2022-12-18T03:48:05.778Z,27.40
2022-12-18T03:58:16.462Z,25.67
2022-12-18T04:08:28.628Z,24.47
2022-12-18T04:18:38.890Z,26.67
2022-12-18T04:28:40.732Z,26.03
2022-12-18T04:38:42.308Z,22.80
2022-12-18T04:48:48.101Z,23.93
2022-12-18T04:58:49.718Z,23.40
2022-12-18T05:08:51.241Z,24.13
2022-12-18T05:18:52.759Z,23.23
2022-12-18T05:28:54.228Z,22.10
2022-12-18T05:38:55.675Z,22.70
2022-12-18T05:49:00.700Z,24.50
2022-12-18T05:59:02.599Z,24.83
2022-12-18T06:09:10.407Z,23.73
2022-12-18T06:19:16.397Z,21.07
2022-12-18T06:29:17.844Z,20.90
2022-12-18T06:39:20.314Z,21.60
2022-12-18T06:49:24.163Z,22.40
2022-12-18T06:59:28.820Z,22.73
2022-12-18T07:09:30.710Z,23.00
2022-12-18T07:19:32.143Z,22.27
2022-12-18T07:29:33.821Z,22.70
2022-12-18T07:39:35.276Z,22.73
2022-12-18T07:49:37.403Z,22.87
2022-12-18T07:59:39.248Z,21.77
2022-12-18T08:09:40.668Z,22.27
2022-12-18T08:19:42.121Z,22.83
2022-12-18T08:29:43.588Z,23.07
2022-12-18T08:39:46.937Z,21.30
2022-12-18T08:49:48.686Z,20.10
2022-12-18T08:59:50.229Z,19.30
2022-12-18T09:09:51.923Z,18.93
2022-12-18T09:19:53.663Z,19.77
2022-12-18T09:29:55.113Z,18.83
2022-12-18T09:39:56.610Z,19.53
2022-12-18T09:50:08.177Z,18.60
2022-12-18T10:00:19.986Z,17.50
2022-12-18T10:10:41.260Z,18.63
2022-12-18T10:20:52.938Z,17.77
2022-12-18T10:30:54.525Z,18.03
2022-12-18T10:41:06.320Z,18.93
2022-12-18T10:51:12.299Z,18.80
2022-12-18T11:01:18.008Z,18.47
2022-12-18T11:11:24.172Z,18.90
2022-12-18T11:21:26.453Z,19.53
2022-12-18T11:31:29.759Z,19.33
2022-12-18T11:41:57.615Z,19.90
2022-12-18T11:52:17.372Z,18.47
2022-12-18T12:02:31.332Z,20.73
2022-12-18T12:13:11.590Z,19.03
2022-12-18T12:23:34.936Z,19.27
2022-12-18T12:33:51.779Z,19.53
2022-12-18T12:43:56.281Z,19.07
2022-12-18T12:54:01.387Z,18.60
2022-12-18T13:04:08.137Z,20.43
2022-12-18T13:14:24.114Z,18.30
2022-12-18T13:24:31.689Z,17.97
2022-12-18T13:34:33.800Z,19.97
2022-12-18T13:44:40.993Z,17.87
2022-12-18T13:54:43.929Z,17.20
2022-12-18T14:04:52.553Z,17.87
2022-12-18T14:14:55.204Z,17.43
2022-12-18T14:25:16.048Z,18.37
2022-12-18T14:35:18.869Z,17.60
2022-12-18T14:45:53.089Z,18.27
2022-12-18T14:55:54.589Z,16.13
2022-12-18T15:05:57.362Z,16.87
2022-12-18T15:16:03.891Z,17.50
2022-12-18T15:26:07.150Z,18.90
2022-12-18T15:36:13.669Z,16.97
2022-12-18T15:46:20.523Z,16.30
2022-12-18T15:56:40.674Z,18.30
2022-12-18T16:07:12.604Z,18.03
2022-12-18T16:17:07.167Z,17.27
2022-12-18T16:27:08.712Z,18.63
2022-12-18T16:37:12.583Z,19.17
2022-12-18T16:47:15.379Z,18.93
2022-12-18T16:57:19.604Z,18.03
2022-12-18T17:07:22.615Z,19.13
2022-12-18T17:17:24.506Z,18.40
2022-12-18T17:27:25.985Z,20.63
2022-12-18T17:37:27.831Z,19.27
2022-12-18T17:47:29.460Z,20.60
2022-12-18T17:57:31.108Z,21.17
2022-12-18T18:07:32.668Z,20.43
2022-12-18T18:17:34.304Z,23.10
2022-12-18T18:27:38.895Z,21.10
2022-12-18T18:37:40.695Z,21.67
2022-12-18T18:47:43.177Z,21.30
2022-12-18T18:57:44.640Z,20.30
2022-12-18T19:07:47.476Z,21.87
2022-12-18T19:17:48.932Z,22.27
2022-12-18T19:27:50.739Z,21.67
2022-12-18T19:37:52.231Z,23.03
2022-12-18T19:47:53.758Z,24.00
2022-12-18T19:57:56.949Z,23.27
2022-12-18T20:07:58.527Z,22.33
2022-12-18T20:18:00.089Z,24.07
2022-12-18T20:28:01.749Z,25.17
2022-12-18T20:38:03.236Z,24.40
2022-12-18T20:48:06.327Z,24.77
2022-12-18T20:58:07.997Z,25.10
2022-12-18T21:08:09.976Z,24.30
2022-12-18T21:18:14.322Z,28.67
2022-12-18T21:28:17.084Z,27.03
2022-12-18T21:38:18.533Z,28.90
2022-12-18T21:48:20.036Z,28.90
2022-12-18T21:58:21.464Z,30.20
2022-12-18T22:08:22.900Z,30.13
2022-12-18T22:18:24.640Z,30.43
2022-12-18T22:28:44.859Z,31.87
2022-12-18T22:38:46.935Z,31.87
2022-12-18T22:48:49.680Z,33.07
2022-12-18T22:58:52.022Z,33.00
2022-12-18T23:08:57.914Z,31.30
2022-12-18T23:18:59.514Z,29.67
2022-12-18T23:29:01.666Z,30.70
2022-12-18T23:39:03.480Z,30.93
2022-12-18T23:49:05.798Z,30.77
2022-12-18T23:59:08.121Z,31.10
